Time;durP1;ratioP1;P1;durP2;ratioP2;P2;SDS_P1;SDS_P2;PMS_P1;PMS_P2;Temp;Humidity;BMP_temperature;BMP_pressure;BME280_temperature;BME280_humidity;BME280_pressure;Samples;Min_cycle;Max_cycle;Signal;HPM_P1;HPM_P2
2024/04/21 00:00:55;;;;;;;14.48;3.80;;;;;;;2.90;100.00;100755.34;10296624;28;20027;-76
2024/04/21 00:05:57;;;;;;;18.92;4.00;;;;;;;3.20;100.00;100761.09;10291548;28;20023;-75
2024/04/21 00:10:59;;;;;;;17.13;4.88;;;;;;;3.46;100.00;100760.78;10300055;28;20017;-75
2024/04/21 00:16:01;;;;;;;21.23;5.47;;;;;;;3.62;100.00;100760.06;10285590;28;20141;-76
2024/04/21 00:21:03;;;;;;;25.98;6.32;;;;;;;3.63;100.00;100740.56;10265714;28;20095;-76
2024/04/21 00:26:05;;;;;;;20.85;6.70;;;;;;;3.64;100.00;100750.25;10283848;28;20024;-76
2024/04/21 00:31:08;;;;;;;25.67;8.70;;;;;;;3.64;100.00;100748.44;10247486;28;20419;-73
2024/04/21 00:36:10;;;;;;;27.33;8.20;;;;;;;3.72;100.00;100748.09;10296469;28;20090;-75
2024/04/21 00:41:12;;;;;;;20.60;6.50;;;;;;;3.69;100.00;100746.44;10294977;28;20650;-75
2024/04/21 00:46:14;;;;;;;24.58;9.20;;;;;;;3.75;100.00;100747.09;10298769;28;20024;-75
2024/04/21 00:51:19;;;;;;;26.67;8.63;;;;;;;3.80;100.00;100742.44;10281814;28;20009;-75
2024/04/21 00:56:23;;;;;;;21.00;9.73;;;;;;;3.80;100.00;100747.75;10277730;28;20025;-74
2024/04/21 01:01:24;;;;;;;22.90;8.23;;;;;;;3.87;100.00;100754.50;10299717;28;20374;-76
2024/04/21 01:06:26;;;;;;;27.15;9.40;;;;;;;3.95;100.00;100747.03;10285758;28;20027;-75
2024/04/21 01:11:28;;;;;;;22.98;8.98;;;;;;;3.94;100.00;100758.56;10296720;28;20025;-76
2024/04/21 01:16:32;;;;;;;18.80;10.80;;;;;;;3.94;100.00;100753.25;10289207;28;20030;-75
2024/04/21 01:21:34;;;;;;;31.60;11.43;;;;;;;3.98;100.00;100756.63;10285325;28;20478;-76
2024/04/21 01:26:36;;;;;;;21.52;10.13;;;;;;;3.89;100.00;100761.44;10278186;28;20439;-75
2024/04/21 01:31:37;;;;;;;7.38;4.82;;;;;;;3.41;100.00;100776.06;10272363;28;20044;-74
2024/04/21 01:36:39;;;;;;;5.93;3.90;;;;;;;2.88;100.00;100786.38;10280414;28;20076;-76
2024/04/21 01:41:41;;;;;;;9.45;4.72;;;;;;;2.54;100.00;100793.97;10278368;28;20016;-76
2024/04/21 01:46:43;;;;;;;9.85;4.15;;;;;;;2.33;100.00;100803.63;10283803;28;20014;-76
2024/04/21 01:51:44;;;;;;;8.75;4.15;;;;;;;2.43;100.00;100801.47;10278988;28;20009;-76
2024/04/21 01:56:46;;;;;;;10.50;4.50;;;;;;;2.52;100.00;100809.03;10268913;28;20012;-76
2024/04/21 02:01:48;;;;;;;8.50;4.43;;;;;;;2.56;100.00;100815.13;10278318;28;23738;-75
2024/04/21 02:06:50;;;;;;;5.30;3.63;;;;;;;2.43;100.00;100806.75;10283335;28;20466;-75
2024/04/21 02:11:52;;;;;;;2.42;1.48;;;;;;;2.12;100.00;100815.94;10282842;28;20071;-76
2024/04/21 02:16:54;;;;;;;3.60;1.00;;;;;;;2.07;100.00;100817.91;10283747;28;20013;-76
2024/04/21 02:21:56;;;;;;;3.92;1.73;;;;;;;2.06;100.00;100815.31;10270437;28;20028;-76
2024/04/21 02:26:58;;;;;;;12.65;2.40;;;;;;;2.02;100.00;100825.16;10291319;28;20846;-76
2024/04/21 02:32:00;;;;;;;4.80;2.35;;;;;;;1.84;100.00;100818.78;10281475;28;20023;-76
2024/04/21 02:37:02;;;;;;;8.32;3.47;;;;;;;1.70;100.00;100814.00;10258016;28;20013;-75
2024/04/21 02:42:05;;;;;;;7.38;3.30;;;;;;;1.63;100.00;100809.00;10289127;28;20013;-76
2024/04/21 02:47:06;;;;;;;10.40;3.53;;;;;;;1.62;100.00;100810.78;10290200;28;20009;-74
2024/04/21 02:52:08;;;;;;;14.52;3.50;;;;;;;1.56;100.00;100815.44;10294620;28;20005;-76
2024/04/21 02:57:10;;;;;;;12.27;2.92;;;;;;;1.44;100.00;100809.66;10250281;28;20084;-76
2024/04/21 03:02:12;;;;;;;11.90;3.75;;;;;;;1.49;100.00;100807.72;10287228;28;20009;-76
2024/04/21 03:07:14;;;;;;;11.40;3.83;;;;;;;1.42;100.00;100806.19;10302607;28;20154;-75
2024/04/21 03:12:16;;;;;;;9.35;3.83;;;;;;;0.77;100.00;100799.69;10266988;28;20009;-75
2024/04/21 03:17:22;;;;;;;7.60;3.72;;;;;;;1.36;100.00;100787.91;10296306;28;20013;-75
2024/04/21 03:22:23;;;;;;;9.05;3.08;;;;;;;1.27;100.00;100783.81;10294654;28;20046;-75
2024/04/21 03:27:25;;;;;;;6.70;2.80;;;;;;;0.96;100.00;100777.84;10295082;28;20355;-74
2024/04/21 03:32:27;;;;;;;6.50;2.85;;;;;;;1.42;100.00;100763.84;10287991;28;20091;-75
2024/04/21 03:37:29;;;;;;;4.00;2.42;;;;;;;1.85;100.00;100786.06;10286963;28;20016;-76
2024/04/21 03:42:31;;;;;;;3.63;2.72;;;;;;;2.03;100.00;100792.47;10297620;28;20485;-75
2024/04/21 03:47:33;;;;;;;5.07;2.95;;;;;;;2.14;100.00;100808.81;10289540;28;20024;-76
2024/04/21 03:52:35;;;;;;;8.18;2.78;;;;;;;2.21;100.00;100806.75;10297687;28;20013;-75
2024/04/21 03:57:37;;;;;;;3.72;2.60;;;;;;;2.27;100.00;100824.19;10283319;28;20678;-75
2024/04/21 04:02:39;;;;;;;5.38;2.90;;;;;;;2.31;100.00;100841.75;10281090;28;20009;-75
2024/04/21 04:07:41;;;;;;;8.52;3.80;;;;;;;2.35;100.00;100851.28;10298763;28;20016;-75
2024/04/21 04:12:43;;;;;;;5.05;3.03;;;;;;;2.35;100.00;100853.94;10288638;28;20024;-75
2024/04/21 04:17:48;;;;;;;9.73;4.15;;;;;;;2.29;100.00;100856.84;10271851;28;20362;-74
2024/04/21 04:22:50;;;;;;;12.25;5.20;;;;;;;2.20;100.00;100849.25;10283676;28;20009;-75
2024/04/21 04:27:52;;;;;;;12.57;5.53;;;;;;;2.18;100.00;100844.00;10281205;28;20032;-74
2024/04/21 04:32:55;;;;;;;9.82;4.95;;;;;;;2.14;100.00;100850.34;10288513;28;20009;-73
2024/04/21 04:37:57;;;;;;;11.38;5.35;;;;;;;2.10;100.00;100856.69;10285860;28;20576;-74
2024/04/21 04:42:59;;;;;;;12.48;6.13;;;;;;;2.05;100.00;100861.28;10293842;28;20786;-74
2024/04/21 04:48:01;;;;;;;11.85;6.18;;;;;;;2.10;100.00;100864.63;10291040;28;20026;-74
2024/04/21 04:53:03;;;;;;;10.88;6.40;;;;;;;2.05;100.00;100867.44;10284172;28;20020;-74
2024/04/21 04:58:06;;;;;;;13.43;6.15;;;;;;;2.06;100.00;100870.97;10282313;28;20097;-75
2024/04/21 05:03:07;;;;;;;11.73;6.35;;;;;;;2.20;100.00;100879.25;10273533;28;20009;-75
2024/04/21 05:08:09;;;;;;;13.65;7.55;;;;;;;2.39;100.00;100893.53;10289354;28;20140;-75
2024/04/21 05:13:11;;;;;;;13.40;6.88;;;;;;;2.43;100.00;100896.06;10294973;28;20021;-75
2024/04/21 05:18:13;;;;;;;14.20;7.40;;;;;;;2.45;100.00;100905.69;10303195;28;20046;-74
2024/04/21 05:23:15;;;;;;;13.35;9.43;;;;;;;2.61;100.00;100916.59;10292246;28;20385;-76
2024/04/21 05:28:17;;;;;;;13.98;7.05;;;;;;;2.64;100.00;100920.94;10281650;28;20099;-75
2024/04/21 05:33:33;;;;;;;12.80;7.47;;;;;;;2.79;100.00;100934.41;10296066;28;20475;-75
2024/04/21 05:38:35;;;;;;;10.23;5.78;;;;;;;2.89;100.00;100936.72;10290459;28;20013;-75
2024/04/21 05:43:36;;;;;;;11.45;6.40;;;;;;;2.84;100.00;100947.50;10292563;28;20009;-75
2024/04/21 05:48:38;;;;;;;10.65;6.82;;;;;;;3.01;100.00;100950.34;10296458;28;20013;-76
2024/04/21 05:53:40;;;;;;;14.30;7.20;;;;;;;3.14;100.00;100958.69;10286968;28;20010;-74
2024/04/21 05:58:42;;;;;;;14.68;7.82;;;;;;;3.13;100.00;100964.94;10298415;28;20115;-74
2024/04/21 06:03:43;;;;;;;16.13;8.85;;;;;;;3.19;100.00;100972.63;10285467;28;20005;-75
2024/04/21 06:08:45;;;;;;;18.05;10.13;;;;;;;3.18;100.00;100970.91;10273837;28;20595;-76
2024/04/21 06:13:47;;;;;;;19.45;10.90;;;;;;;3.30;100.00;100976.66;10297333;28;20009;-75
2024/04/21 06:18:49;;;;;;;23.45;10.63;;;;;;;3.58;100.00;100981.66;10290291;28;20478;-75
2024/04/21 06:23:51;;;;;;;15.63;10.18;;;;;;;3.72;100.00;100982.78;10302526;28;20009;-75
2024/04/21 06:28:53;;;;;;;16.95;9.88;;;;;;;3.84;100.00;100986.72;10277891;28;20017;-75
2024/04/21 06:33:55;;;;;;;13.90;9.35;;;;;;;3.89;100.00;100989.16;10286104;28;20013;-74
2024/04/21 06:38:56;;;;;;;14.50;9.10;;;;;;;4.27;100.00;100984.81;10287118;28;20013;-74
2024/04/21 06:43:58;;;;;;;14.50;9.10;;;;;;;4.41;100.00;100997.50;10290365;28;20028;-74
2024/04/21 06:49:00;;;;;;;11.82;7.65;;;;;;;4.45;100.00;101000.91;10253461;28;20655;-76
2024/04/21 06:54:02;;;;;;;12.70;9.30;;;;;;;4.51;100.00;101003.25;10288730;28;20013;-75
2024/04/21 06:59:04;;;;;;;10.30;6.28;;;;;;;3.90;100.00;101028.13;10288734;28;20017;-75
2024/04/21 07:04:06;;;;;;;11.48;7.72;;;;;;;3.85;100.00;101033.63;10305356;28;20027;-75
2024/04/21 07:09:07;;;;;;;12.18;7.00;;;;;;;3.94;100.00;101043.00;10364463;28;20016;-75
2024/04/21 07:14:09;;;;;;;10.65;6.72;;;;;;;4.19;100.00;101048.13;10362040;28;20012;-76
2024/04/21 07:19:21;;;;;;;9.10;6.30;;;;;;;4.88;100.00;101050.31;10355402;28;20030;-74
2024/04/21 07:24:24;;;;;;;7.97;5.68;;;;;;;5.31;100.00;101056.31;10253796;28;1089509;-77
2024/04/21 07:29:26;;;;;;;7.30;5.32;;;;;;;5.35;100.00;101059.69;10281002;28;20028;-75
2024/04/21 07:34:28;;;;;;;7.97;5.72;;;;;;;5.71;100.00;101060.53;10255042;28;20028;-76
2024/04/21 07:39:30;;;;;;;5.60;4.40;;;;;;;5.82;100.00;101060.00;10306909;28;20014;-76
2024/04/21 07:44:32;;;;;;;7.85;5.47;;;;;;;5.69;100.00;101070.41;10287930;28;20024;-76
2024/04/21 07:49:33;;;;;;;7.70;4.90;;;;;;;5.70;100.00;101074.81;10270948;28;20052;-76
2024/04/21 07:54:56;;;;;;;7.32;5.40;;;;;;;6.30;100.00;101068.22;10287346;28;20021;-76
2024/04/21 07:59:58;;;;;;;6.57;5.25;;;;;;;6.72;100.00;101075.78;10283529;28;20005;-76
2024/04/21 08:04:59;;;;;;;5.78;4.95;;;;;;;6.73;98.25;101087.31;10297558;28;20068;-75
2024/04/21 08:10:01;;;;;;;5.70;5.03;;;;;;;6.83;95.84;101084.06;10300628;28;20019;-76
2024/04/21 08:15:05;;;;;;;6.82;5.35;;;;;;;7.51;97.89;101088.34;10308526;28;20013;-77
2024/04/21 08:20:07;;;;;;;5.65;4.55;;;;;;;7.45;92.60;101089.56;10302076;28;20152;-77
2024/04/21 08:25:09;;;;;;;6.13;4.00;;;;;;;6.91;89.75;101089.03;10296773;28;20012;-76
2024/04/21 08:30:11;;;;;;;5.10;3.97;;;;;;;7.34;90.04;101091.13;10297341;28;20792;-77
2024/04/21 08:35:13;;;;;;;5.78;4.97;;;;;;;7.89;87.93;101096.81;10301893;28;20012;-77
2024/04/21 08:40:15;;;;;;;5.47;4.10;;;;;;;8.20;85.71;101105.75;10310381;28;20013;-77
2024/04/21 08:45:20;;;;;;;7.60;4.15;;;;;;;7.29;80.04;101110.06;10286678;28;20009;-76
2024/04/21 08:50:24;;;;;;;5.72;4.18;;;;;;;6.81;81.91;101117.13;10269915;28;20040;-76
2024/04/21 08:55:29;;;;;;;7.03;4.45;;;;;;;7.16;80.14;101131.28;10316576;28;20020;-77
2024/04/21 09:00:32;;;;;;;6.47;4.10;;;;;;;7.76;77.15;101125.22;10282866;28;20025;-76
2024/04/21 09:05:34;;;;;;;5.95;4.55;;;;;;;7.88;75.88;101115.66;10302080;28;20009;-76
2024/04/21 09:10:36;;;;;;;6.03;3.60;;;;;;;7.68;70.32;101124.84;10291918;28;20052;-76
2024/04/21 09:15:38;;;;;;;4.60;3.90;;;;;;;7.30;76.65;101129.66;10283921;28;20009;-75
2024/04/21 09:20:40;;;;;;;5.13;3.97;;;;;;;7.40;69.15;101129.03;10315802;28;20020;-75
2024/04/21 09:25:42;;;;;;;7.03;3.23;;;;;;;8.54;66.30;101131.38;10265305;28;20581;-74
2024/04/21 09:30:45;;;;;;;5.55;3.60;;;;;;;9.76;63.89;101135.28;10291739;28;20381;-76
2024/04/21 09:35:47;;;;;;;4.00;3.40;;;;;;;8.98;64.67;101135.78;10286127;28;20023;-75
2024/04/21 09:40:53;;;;;;;4.30;3.03;;;;;;;9.19;65.58;101136.28;10283577;28;20022;-75
2024/04/21 09:45:56;;;;;;;3.25;2.95;;;;;;;9.46;66.51;101133.66;10259251;28;20437;-76
2024/04/21 09:50:58;;;;;;;3.85;2.78;;;;;;;10.32;60.83;101144.09;10282005;28;20351;-77
2024/04/21 09:56:04;;;;;;;4.95;2.85;;;;;;;11.31;57.60;101135.41;10290227;28;20028;-78
2024/04/21 10:01:20;;;;;;;5.03;2.35;;;;;;;11.30;52.94;101136.41;10252526;28;20133;-77
2024/04/21 10:06:24;;;;;;;4.43;2.92;;;;;;;10.96;53.59;101140.59;10253982;28;20123;-79
2024/04/21 10:11:26;;;;;;;4.65;2.25;;;;;;;10.82;53.95;101147.78;10307107;28;20010;-79
2024/04/21 10:16:30;;;;;;;;;;;;;;;9.87;52.06;101150.72;10253276;28;20009;-76
2024/04/21 10:21:32;;;;;;;5.13;2.20;;;;;;;10.59;54.70;101149.41;10256320;28;19939;-78
2024/04/21 10:26:34;;;;;;;2.90;2.05;;;;;;;12.78;48.57;101147.72;10315735;28;20025;-78
2024/04/21 10:31:36;;;;;;;2.45;1.95;;;;;;;13.35;44.45;101154.00;10298569;28;20013;-79
2024/04/21 10:36:44;;;;;;;2.17;1.98;;;;;;;12.89;42.06;101158.53;10295724;28;20470;-77
2024/04/21 10:41:48;;;;;;;2.80;1.80;;;;;;;12.97;41.51;101166.88;10291044;28;20009;-78
2024/04/21 10:46:50;;;;;;;3.28;1.48;;;;;;;12.43;40.89;101159.41;10302938;28;20017;-78
2024/04/21 10:51:52;;;;;;;2.43;1.37;;;;;;;13.68;40.45;101156.69;10306249;28;20017;-78
2024/04/21 10:56:54;;;;;;;2.05;1.95;;;;;;;11.34;40.30;101177.38;10296701;28;20300;-77
2024/04/21 11:01:56;;;;;;;2.07;1.70;;;;;;;10.10;42.58;101187.63;10297523;28;20025;-77
2024/04/21 11:06:58;;;;;;;2.53;2.10;;;;;;;10.52;43.36;101174.09;10298877;28;20260;-78
2024/04/21 11:12:01;;;;;;;3.33;1.50;;;;;;;10.77;40.94;101181.31;10322224;28;20019;-78
2024/04/21 11:17:03;;;;;;;2.58;1.60;;;;;;;10.29;41.16;101173.00;10340872;28;20023;-78
2024/04/21 11:22:05;;;;;;;1.60;1.50;;;;;;;10.93;40.91;101184.66;10332337;28;20020;-76
2024/04/21 11:27:11;;;;;;;8.18;4.18;;;;;;;11.04;38.89;101176.72;10327356;28;20009;-77
2024/04/21 11:32:15;;;;;;;2.38;2.13;;;;;;;11.60;38.31;101184.44;10317854;28;20008;-77
2024/04/21 11:37:21;;;;;;;2.30;2.10;;;;;;;12.91;37.88;101175.44;10302783;28;20147;-77
2024/04/21 11:42:22;;;;;;;1.60;1.42;;;;;;;15.04;36.12;101165.06;10284458;28;20176;-77
2024/04/21 11:47:24;;;;;;;2.43;1.20;;;;;;;16.53;33.15;101165.13;10318342;28;20008;-77
2024/04/21 11:52:26;;;;;;;1.63;1.30;;;;;;;16.74;31.80;101152.25;10316997;28;20290;-77
2024/04/21 11:57:28;;;;;;;3.08;1.40;;;;;;;13.56;34.93;101165.78;10280945;28;20044;-76
2024/04/21 12:02:30;;;;;;;1.43;1.30;;;;;;;13.46;34.46;101171.06;10299588;28;20023;-76
2024/04/21 12:07:32;;;;;;;1.90;1.40;;;;;;;13.03;34.79;101171.78;10299538;28;20275;-75
2024/04/21 12:12:34;;;;;;;1.75;1.20;;;;;;;10.69;36.38;101184.53;10298365;28;20716;-78
2024/04/21 12:17:36;;;;;;;1.77;1.58;;;;;;;10.34;37.02;101192.34;10304716;28;20354;-76
2024/04/21 12:22:38;;;;;;;1.63;1.40;;;;;;;12.28;35.09;101176.69;10309624;28;20009;-76
2024/04/21 12:27:40;;;;;;;2.20;1.30;;;;;;;14.48;33.28;101189.72;10292889;28;20471;-77
2024/04/21 12:32:41;;;;;;;1.40;1.30;;;;;;;13.60;32.78;101196.09;10298650;28;20090;-76
2024/04/21 12:37:43;;;;;;;2.85;1.52;;;;;;;13.09;34.90;101185.78;10299969;28;20024;-76
2024/04/21 12:42:45;;;;;;;1.70;1.53;;;;;;;12.55;33.82;101184.56;10288997;28;20016;-76
2024/04/21 12:47:52;;;;;;;1.60;1.50;;;;;;;12.18;35.41;101190.03;10306409;28;20470;-76
2024/04/21 12:52:54;;;;;;;3.95;1.80;;;;;;;13.40;34.43;101193.16;10310521;28;20067;-75
2024/04/21 12:57:55;;;;;;;1.77;1.43;;;;;;;14.59;32.92;101189.69;10286282;28;20024;-76
2024/04/21 13:02:57;;;;;;;2.25;1.30;;;;;;;14.05;31.97;101177.97;10307181;28;20095;-76
2024/04/21 13:08:01;;;;;;;1.70;1.45;;;;;;;14.66;31.16;101190.00;10297239;28;20028;-75
2024/04/21 13:13:03;;;;;;;4.72;1.60;;;;;;;14.57;29.97;101186.25;10299448;28;20009;-74
2024/04/21 13:18:05;;;;;;;2.55;1.20;;;;;;;15.33;29.83;101169.72;10304583;28;20040;-76
2024/04/21 13:23:06;;;;;;;1.95;1.52;;;;;;;15.64;30.40;101181.44;10301943;28;20005;-76
2024/04/21 13:28:08;;;;;;;2.60;1.40;;;;;;;13.65;31.57;101189.34;10301252;28;20023;-76
2024/04/21 13:33:10;;;;;;;3.33;1.70;;;;;;;12.46;34.00;101185.28;10284507;28;20248;-76
2024/04/21 13:38:12;;;;;;;1.77;1.50;;;;;;;14.37;32.17;101186.06;10311423;28;20260;-75
2024/04/21 13:43:14;;;;;;;1.83;1.57;;;;;;;13.33;31.51;101196.44;10270625;28;20005;-74
2024/04/21 13:48:16;;;;;;;1.63;1.53;;;;;;;12.77;32.27;101199.94;10313156;28;20075;-74
2024/04/21 13:53:18;;;;;;;1.90;1.40;;;;;;;12.26;32.75;101205.59;10301446;28;21056;-75
2024/04/21 13:58:19;;;;;;;3.85;1.67;;;;;;;13.60;32.70;101204.19;10314356;28;20023;-75
2024/04/21 14:03:21;;;;;;;2.88;1.40;;;;;;;13.06;31.84;101211.16;10316384;28;20040;-76
2024/04/21 14:08:24;;;;;;;3.72;1.30;;;;;;;14.15;31.12;101214.03;10309398;28;20046;-75
2024/04/21 14:13:27;;;;;;;2.50;1.40;;;;;;;14.32;30.32;101209.94;10308161;28;20011;-75
2024/04/21 14:18:29;;;;;;;1.70;1.60;;;;;;;15.10;29.86;101191.56;10316303;28;20465;-75
2024/04/21 14:23:31;;;;;;;2.23;1.33;;;;;;;15.22;29.43;101197.75;10305316;28;20017;-74
2024/04/21 14:28:33;;;;;;;1.77;1.38;;;;;;;13.55;31.36;101206.41;10305458;28;20307;-75
2024/04/21 14:33:35;;;;;;;3.45;1.42;;;;;;;12.19;32.08;101207.03;10311550;28;20407;-75
2024/04/21 14:38:37;;;;;;;1.85;1.67;;;;;;;13.44;31.51;101200.03;10303151;28;20829;-75
2024/04/21 14:43:39;;;;;;;3.08;1.40;;;;;;;13.03;32.06;101195.22;10313128;28;20012;-75
2024/04/21 14:48:41;;;;;;;4.60;1.70;;;;;;;12.66;33.23;101203.44;10311673;28;20783;-75
2024/04/21 14:53:42;;;;;;;3.30;1.30;;;;;;;12.17;32.71;101209.84;10295263;28;20085;-75
2024/04/21 14:58:44;;;;;;;2.00;1.83;;;;;;;12.44;33.65;101206.94;10312422;28;20377;-75
2024/04/21 15:03:48;;;;;;;2.80;1.20;;;;;;;13.94;31.96;101200.47;10314010;28;20009;-75
2024/04/21 15:08:51;;;;;;;1.48;1.38;;;;;;;14.72;29.99;101203.00;10309192;28;20426;-74
2024/04/21 15:13:52;;;;;;;2.08;1.30;;;;;;;14.71;30.89;101198.59;10301284;28;20008;-75
2024/04/21 15:18:59;;;;;;;3.45;1.42;;;;;;;12.46;30.11;101199.59;10311946;28;20090;-74
2024/04/21 15:24:01;;;;;;;1.30;1.20;;;;;;;11.14;32.61;101220.00;10312604;28;20013;-74
2024/04/21 15:29:03;;;;;;;3.10;1.53;;;;;;;10.70;34.28;101231.09;10305181;28;20017;-75
2024/04/21 15:34:05;;;;;;;1.30;1.20;;;;;;;10.95;34.83;101231.13;10339033;28;20710;-75
2024/04/21 15:39:07;;;;;;;2.72;1.52;;;;;;;10.68;36.15;101225.81;10335040;28;20029;-74
2024/04/21 15:44:10;;;;;;;2.73;1.80;;;;;;;10.48;36.39;101229.00;10309438;28;20028;-75
2024/04/21 15:49:12;;;;;;;2.05;1.85;;;;;;;10.30;36.27;101233.78;10312217;28;20280;-75
2024/04/21 15:54:14;;;;;;;3.50;1.75;;;;;;;10.24;36.10;101237.72;10303784;28;20020;-75
2024/04/21 15:59:15;;;;;;;2.55;1.70;;;;;;;10.02;36.63;101238.28;10302836;28;20025;-75
2024/04/21 16:04:17;;;;;;;2.25;1.73;;;;;;;10.64;36.70;101239.56;10309657;28;20008;-75
2024/04/21 16:09:19;;;;;;;1.88;1.40;;;;;;;11.46;35.39;101241.03;10299961;28;20009;-75
2024/04/21 16:14:21;;;;;;;1.55;1.23;;;;;;;11.26;34.33;101237.94;10278418;28;20466;-75
2024/04/21 16:19:23;;;;;;;2.47;1.65;;;;;;;10.77;35.36;101246.69;10278543;28;20025;-75
2024/04/21 16:24:25;;;;;;;;;;;;;;;10.82;36.14;101249.06;10295816;28;20386;-76
2024/04/21 16:29:27;;;;;;;1.77;1.67;;;;;;;11.53;34.95;101245.03;10287123;28;19940;-75
2024/04/21 16:34:29;;;;;;;1.60;1.50;;;;;;;12.58;34.53;101235.53;10294122;28;20009;-74
2024/04/21 16:39:32;;;;;;;1.38;1.27;;;;;;;12.81;32.96;101239.19;10272989;28;20035;-75
2024/04/21 16:44:34;;;;;;;3.08;1.70;;;;;;;12.42;33.41;101235.81;10280318;28;20004;-76
2024/04/21 16:49:36;;;;;;;3.67;1.63;;;;;;;12.31;35.23;101235.78;10287194;28;20012;-75
2024/04/21 16:54:38;;;;;;;2.42;1.83;;;;;;;12.63;33.25;101235.19;10288089;28;20022;-75
2024/04/21 16:59:40;;;;;;;2.75;1.33;;;;;;;13.16;32.66;101235.56;10299868;28;20023;-74
2024/04/21 17:04:42;;;;;;;3.45;1.27;;;;;;;13.59;32.91;101226.78;10287475;28;20008;-74
2024/04/21 17:09:47;;;;;;;1.63;1.52;;;;;;;13.28;32.28;101230.06;10292170;28;20469;-74
2024/04/21 17:14:49;;;;;;;2.05;1.50;;;;;;;13.54;31.64;101242.47;10299955;28;20048;-76
2024/04/21 17:19:51;;;;;;;1.88;1.75;;;;;;;13.84;31.87;101233.75;10278917;28;20009;-75
2024/04/21 17:24:53;;;;;;;1.57;1.00;;;;;;;12.89;31.13;101239.44;10227824;28;20022;-75
2024/04/21 17:29:55;;;;;;;2.70;1.77;;;;;;;11.54;34.25;101257.50;10221948;28;20603;-75
2024/04/21 17:34:57;;;;;;;5.10;2.77;;;;;;;10.48;36.03;101263.94;10226791;28;20818;-75
2024/04/21 17:39:58;;;;;;;1.53;1.43;;;;;;;9.94;36.35;101270.13;10209440;28;20013;-74
2024/04/21 17:45:01;;;;;;;4.10;1.70;;;;;;;9.77;37.10;101264.97;10211842;28;20265;-74
2024/04/21 17:50:03;;;;;;;3.67;1.63;;;;;;;9.50;37.73;101274.63;10222143;28;20028;-74
2024/04/21 17:55:04;;;;;;;3.53;1.80;;;;;;;9.22;38.12;101274.63;10222713;28;20014;-75
2024/04/21 18:00:08;;;;;;;3.20;2.22;;;;;;;9.06;39.21;101288.94;10239215;28;20357;-74
2024/04/21 18:05:10;;;;;;;2.72;2.10;;;;;;;8.90;39.64;101285.47;10226133;28;20371;-75
2024/04/21 18:10:12;;;;;;;5.13;1.80;;;;;;;8.83;39.92;101289.44;10226009;28;20025;-75
2024/04/21 18:15:14;;;;;;;3.42;2.10;;;;;;;8.68;40.99;101290.38;10221602;28;20452;-75
2024/04/21 18:20:16;;;;;;;1.40;1.30;;;;;;;8.49;42.29;101291.44;10223803;28;20021;-75
2024/04/21 18:25:18;;;;;;;8.60;5.32;;;;;;;8.20;43.01;101298.47;10298117;28;20020;-75
2024/04/21 18:30:20;;;;;;;;;;;;;;;7.98;43.23;101308.59;10300426;28;20458;-75
2024/04/21 18:35:22;;;;;;;5.93;3.67;;;;;;;7.83;43.87;101311.19;10302193;28;19943;-75
2024/04/21 18:40:23;;;;;;;3.53;2.92;;;;;;;7.67;44.32;101305.81;10274045;28;20013;-75
2024/04/21 18:45:25;;;;;;;3.95;2.63;;;;;;;7.44;43.95;101307.06;10275355;28;20353;-74
2024/04/21 18:50:27;;;;;;;3.13;2.20;;;;;;;7.37;44.16;101307.44;10307928;28;20021;-73
2024/04/21 18:55:33;;;;;;;3.20;2.40;;;;;;;7.25;44.52;101311.66;10314728;28;20016;-73
2024/04/21 19:00:36;;;;;;;4.57;2.00;;;;;;;7.17;44.96;101313.84;10322042;28;20023;-75
2024/04/21 19:05:38;;;;;;;4.57;2.08;;;;;;;7.09;44.54;101314.25;10318877;28;20024;-75
2024/04/21 19:10:41;;;;;;;2.10;1.90;;;;;;;6.93;44.91;101324.00;10309246;28;20023;-75
2024/04/21 19:15:46;;;;;;;4.68;2.10;;;;;;;6.89;45.68;101315.28;10309070;28;20016;-74
2024/04/21 19:20:48;;;;;;;2.75;2.20;;;;;;;6.81;45.89;101323.63;10314062;28;20015;-75
2024/04/21 19:25:50;;;;;;;4.53;2.30;;;;;;;6.69;47.11;101316.25;10321394;28;20096;-75
2024/04/21 19:30:52;;;;;;;3.05;2.38;;;;;;;6.61;47.94;101319.31;10320645;28;20008;-73
2024/04/21 19:35:54;;;;;;;2.40;1.90;;;;;;;6.47;48.01;101315.56;10318168;28;20014;-73
2024/04/21 19:40:56;;;;;;;4.53;2.28;;;;;;;6.25;49.48;101335.28;10305977;28;20019;-75
2024/04/21 19:46:01;;;;;;;5.63;3.00;;;;;;;6.22;50.75;101343.44;10305743;28;20012;-75
2024/04/21 19:51:03;;;;;;;3.83;2.72;;;;;;;6.20;52.67;101334.66;10317000;28;20022;-75
2024/04/21 19:56:08;;;;;;;5.20;2.80;;;;;;;6.18;54.37;101336.53;10311526;28;20366;-75
2024/04/21 20:01:11;;;;;;;4.85;3.22;;;;;;;6.19;56.55;101348.94;10312719;28;20016;-73
2024/04/21 20:06:13;;;;;;;4.72;3.28;;;;;;;6.20;57.82;101339.09;10316277;28;20369;-73
2024/04/21 20:11:16;;;;;;;6.63;3.75;;;;;;;6.21;58.91;101341.72;10307966;28;20028;-74
2024/04/21 20:21:39;;;;;;;6.60;3.85;;;;;;;6.12;61.33;101360.84;10310898;28;20027;-74
2024/04/21 20:26:41;;;;;;;5.97;3.63;;;;;;;6.02;62.75;101365.72;10299887;28;20466;-74
2024/04/21 20:31:42;;;;;;;5.70;3.33;;;;;;;5.95;63.18;101370.50;10270717;28;20240;-75
2024/04/21 20:36:44;;;;;;;7.43;3.78;;;;;;;5.82;63.85;101371.97;10289742;28;20289;-75
2024/04/21 20:41:46;;;;;;;6.60;3.80;;;;;;;5.79;64.35;101379.22;10299020;28;20353;-73
2024/04/21 20:46:48;;;;;;;9.70;4.20;;;;;;;5.69;65.19;101376.13;10278721;28;20012;-73
2024/04/21 20:51:50;;;;;;;5.90;4.00;;;;;;;5.68;65.43;101382.41;10281867;28;20019;-73
2024/04/21 20:56:52;;;;;;;6.68;3.92;;;;;;;5.62;66.15;101378.22;10303237;28;20250;-73
2024/04/21 21:01:53;;;;;;;6.73;3.83;;;;;;;5.45;66.80;101384.28;10291267;28;20009;-75
2024/04/21 21:06:55;;;;;;;4.68;3.08;;;;;;;5.40;66.81;101386.31;10302079;28;20259;-75
2024/04/21 21:11:57;;;;;;;6.95;3.80;;;;;;;5.29;67.20;101372.53;10310009;28;20015;-71
2024/04/21 21:16:59;;;;;;;5.63;3.63;;;;;;;5.20;68.07;101380.94;10315987;28;20014;-75
2024/04/21 21:22:01;;;;;;;4.40;3.53;;;;;;;5.15;68.01;101386.47;10302146;28;20028;-77
2024/04/21 21:27:03;;;;;;;4.05;3.38;;;;;;;5.14;67.51;101382.06;10291727;28;20539;-74
2024/04/21 21:32:05;;;;;;;4.25;3.45;;;;;;;5.11;67.22;101376.03;10298852;28;20009;-75
2024/04/21 21:37:06;;;;;;;5.68;3.88;;;;;;;5.06;67.74;101374.41;10295090;28;20016;-75
2024/04/21 21:42:08;;;;;;;6.10;3.65;;;;;;;5.00;67.66;101368.47;10292675;28;20009;-74
2024/04/21 21:47:10;;;;;;;5.88;4.00;;;;;;;4.92;69.43;101381.22;10285268;28;20028;-73
2024/04/21 21:52:12;;;;;;;8.40;3.58;;;;;;;4.78;71.30;101380.00;10278223;28;20019;-75
2024/04/21 21:57:14;;;;;;;6.15;3.83;;;;;;;4.84;70.83;101374.41;10297800;28;20013;-75
2024/04/21 22:02:16;;;;;;;7.28;4.13;;;;;;;4.82;71.03;101370.94;10267829;28;20124;-75
2024/04/21 22:07:18;;;;;;;5.40;3.75;;;;;;;4.78;70.75;101372.00;10294700;28;20018;-74
2024/04/21 22:12:19;;;;;;;5.55;3.75;;;;;;;4.76;71.93;101368.53;10261702;28;20035;-74
2024/04/21 22:17:21;;;;;;;4.82;3.63;;;;;;;4.67;71.75;101371.56;10274245;28;20027;-74
2024/04/21 22:22:23;;;;;;;7.57;3.88;;;;;;;4.67;71.97;101370.72;10301351;28;20026;-75
2024/04/21 22:27:25;;;;;;;5.57;4.30;;;;;;;4.63;72.05;101364.63;10300458;28;20025;-73
2024/04/21 22:32:27;;;;;;;5.05;3.75;;;;;;;4.62;71.01;101368.22;10274267;28;20087;-73
2024/04/21 22:37:30;;;;;;;6.55;4.30;;;;;;;4.55;71.03;101375.59;10290085;28;20017;-74
2024/04/21 22:42:32;;;;;;;5.15;3.97;;;;;;;4.52;71.29;101380.16;10251905;28;20272;-75
2024/04/21 22:47:34;;;;;;;7.72;4.20;;;;;;;4.51;71.01;101383.75;10299025;28;20334;-75
2024/04/21 22:52:36;;;;;;;6.35;3.72;;;;;;;4.27;71.45;101386.44;10274039;28;20090;-75
2024/04/21 22:57:38;;;;;;;6.03;4.13;;;;;;;4.07;72.22;101381.91;10288271;28;20442;-75
2024/04/21 23:02:40;;;;;;;6.30;4.35;;;;;;;3.98;73.28;101384.03;10269354;28;20009;-75
2024/04/21 23:07:42;;;;;;;5.53;3.75;;;;;;;3.94;73.68;101384.16;10294391;28;20014;-73
2024/04/21 23:12:43;;;;;;;4.50;3.78;;;;;;;3.93;73.59;101382.44;10268988;28;20013;-74
2024/04/21 23:17:45;;;;;;;8.10;4.57;;;;;;;3.94;74.09;101385.94;10275072;28;20057;-75